Time;durP1;ratioP1;P1;durP2;ratioP2;P2;SDS_P1;SDS_P2;PMS_P1;PMS_P2;Temp;Humidity;BMP_temperature;BMP_pressure;BME280_temperature;BME280_humidity;BME280_pressure;Samples;Min_cycle;Max_cycle;Signal;HPM_P1;HPM_P2
2021/12/20 00:00:23;;;;;;;11.48;5.10;;;;;;;-0.17;86.76;98407.59;1742317;82;25687;-63
2021/12/20 00:02:54;;;;;;;11.88;5.53;;;;;;;-0.20;86.73;98404.05;1741593;82;26571;-63
2021/12/20 00:05:21;;;;;;;15.15;7.45;;;;;;;-0.20;86.78;98403.48;1742367;82;25413;-63
2021/12/20 00:07:48;;;;;;;20.88;9.38;;;;;;;-0.20;86.78;98397.31;1742308;82;27311;-63
2021/12/20 00:10:16;;;;;;;22.52;8.75;;;;;;;-0.19;86.87;98401.63;1742245;82;25691;-63
2021/12/20 00:12:43;;;;;;;13.70;7.45;;;;;;;-0.20;86.82;98411.57;1742164;82;25614;-63
2021/12/20 00:15:10;;;;;;;15.95;7.35;;;;;;;-0.20;86.96;98407.53;1741940;82;27901;-64
2021/12/20 00:17:38;;;;;;;18.75;7.80;;;;;;;-0.19;86.96;98416.44;1742320;82;25474;-64
2021/12/20 00:20:06;;;;;;;15.90;8.33;;;;;;;-0.21;87.22;98414.52;1741935;82;27480;-63
2021/12/20 00:22:32;;;;;;;17.30;7.55;;;;;;;-0.22;87.48;98413.72;1742531;82;25703;-64
2021/12/20 00:24:59;;;;;;;15.43;7.12;;;;;;;-0.22;87.63;98418.28;1741272;82;25597;-63
2021/12/20 00:27:25;;;;;;;16.15;7.45;;;;;;;-0.21;87.69;98419.90;1742412;82;25781;-64
2021/12/20 00:29:52;;;;;;;17.73;7.12;;;;;;;-0.21;87.54;98426.11;1741721;81;25422;-63
2021/12/20 00:32:19;;;;;;;15.75;7.80;;;;;;;-0.19;87.50;98432.08;1742249;82;28319;-63
2021/12/20 00:34:46;;;;;;;15.90;8.90;;;;;;;-0.15;87.75;98432.38;1742145;82;25743;-63
2021/12/20 00:40:22;;;;;;;18.42;9.10;;;;;;;-0.04;87.91;98437.37;1741656;82;25719;-62
2021/12/20 00:42:59;;;;;;;16.15;9.08;;;;;;;0.02;87.88;98435.03;1742356;82;25473;-63
2021/12/20 00:45:32;;;;;;;16.37;8.45;;;;;;;0.06;87.84;98440.19;1741243;82;27577;-63
2021/12/20 00:47:59;;;;;;;11.85;5.95;;;;;;;0.06;87.93;98436.15;1742024;82;25435;-62
2021/12/20 00:50:28;;;;;;;12.78;6.00;;;;;;;0.07;87.65;98441.84;1742620;82;25490;-63
2021/12/20 00:52:54;;;;;;;11.12;5.90;;;;;;;0.07;87.61;98436.45;1742601;82;25776;-63
2021/12/20 00:55:24;;;;;;;14.13;6.30;;;;;;;0.07;87.58;98434.28;1742249;82;25437;-62
2021/12/20 00:57:54;;;;;;;13.53;7.90;;;;;;;0.09;87.44;98437.55;1741704;82;27383;-63
2021/12/20 01:00:25;;;;;;;16.57;8.05;;;;;;;0.10;87.42;98441.34;1741901;82;25650;-63
2021/12/20 01:02:53;;;;;;;;;;;;;;;0.13;87.38;98435.98;1744549;82;25587;-63
2021/12/20 01:05:21;;;;;;;15.63;7.35;;;;;;;0.16;87.26;98438.17;1742084;82;25596;-63
2021/12/20 01:07:48;;;;;;;13.85;6.72;;;;;;;0.18;87.34;98426.62;1741774;82;25608;-62
2021/12/20 01:10:16;;;;;;;13.85;5.28;;;;;;;0.19;87.29;98434.16;1741108;82;27790;-63
2021/12/20 01:12:48;;;;;;;12.58;5.65;;;;;;;0.17;87.17;98435.75;1742267;82;25618;-63
2021/12/20 01:15:21;;;;;;;8.88;4.28;;;;;;;0.15;87.10;98429.81;1742152;82;25573;-64
2021/12/20 01:17:49;;;;;;;12.82;5.50;;;;;;;0.14;87.10;98430.86;1741609;82;26621;-63
2021/12/20 01:20:17;;;;;;;11.35;5.42;;;;;;;0.12;87.04;98425.72;1743410;82;25391;-64
2021/12/20 01:22:46;;;;;;;11.53;5.03;;;;;;;0.13;86.97;98431.94;1744121;82;27487;-64
2021/12/20 01:25:14;;;;;;;12.20;5.67;;;;;;;0.14;86.95;98439.50;1742996;82;27262;-64
2021/12/20 01:27:41;;;;;;;15.90;5.05;;;;;;;0.14;86.89;98433.55;1743435;82;25410;-64
2021/12/20 01:30:11;;;;;;;9.05;4.67;;;;;;;0.15;86.78;98437.90;1744351;82;25809;-64
2021/12/20 01:32:39;;;;;;;10.98;5.20;;;;;;;0.13;86.76;98442.72;1744343;82;25454;-63
2021/12/20 01:35:06;;;;;;;10.43;4.37;;;;;;;0.12;86.88;98445.14;1744379;82;27429;-64
2021/12/20 01:37:33;;;;;;;8.98;4.67;;;;;;;0.11;86.92;98442.14;1744195;82;25647;-64
2021/12/20 01:39:59;;;;;;;8.68;4.62;;;;;;;0.09;86.87;98438.34;1744330;82;25679;-64
2021/12/20 01:42:30;;;;;;;10.35;5.30;;;;;;;0.07;87.00;98435.11;1744407;82;25827;-64
2021/12/20 01:44:57;;;;;;;10.28;4.55;;;;;;;0.08;87.17;98442.64;1744129;82;25460;-63
2021/12/20 01:47:32;;;;;;;10.38;4.87;;;;;;;0.10;87.11;98445.91;1744084;82;27487;-62
2021/12/20 01:50:04;;;;;;;7.85;3.45;;;;;;;0.14;86.99;98448.38;1743197;82;25593;-63
2021/12/20 01:52:28;;;;;;;6.92;4.20;;;;;;;0.16;86.86;98445.43;1743289;82;25433;-63
2021/12/20 01:54:53;;;;;;;8.48;4.37;;;;;;;0.19;86.84;98459.75;1743053;82;25552;-63
2021/12/20 01:57:22;;;;;;;8.95;3.83;;;;;;;0.21;86.79;98442.81;1744373;82;25600;-63
2021/12/20 01:59:48;;;;;;;7.50;3.55;;;;;;;0.23;86.69;98433.41;1743105;82;28352;-63
2021/12/20 02:02:14;;;;;;;7.72;3.80;;;;;;;0.22;86.86;98433.66;1743706;82;25722;-63
2021/12/20 02:04:47;;;;;;;9.25;4.50;;;;;;;0.22;86.70;98444.43;1743375;82;25728;-62
2021/12/20 02:07:09;;;;;;;9.43;4.90;;;;;;;0.21;86.61;98444.98;1743211;82;25628;-62
2021/12/20 02:09:35;;;;;;;10.35;5.60;;;;;;;0.20;86.66;98443.34;1744484;82;25747;-62
2021/12/20 02:12:02;;;;;;;8.30;4.72;;;;;;;0.23;86.49;98431.26;1744381;82;28437;-62
2021/12/20 02:14:28;;;;;;;8.48;3.98;;;;;;;0.21;86.47;98432.86;1743798;82;25663;-63
2021/12/20 02:16:55;;;;;;;10.45;5.22;;;;;;;0.23;86.35;98437.45;1743655;82;25608;-64
2021/12/20 02:19:21;;;;;;;13.48;7.35;;;;;;;0.26;86.29;98444.76;1742328;82;25839;-62
2021/12/20 02:21:47;;;;;;;16.97;8.35;;;;;;;0.29;86.36;98437.52;1726094;82;25748;-62
2021/12/20 02:24:14;;;;;;;11.68;6.33;;;;;;;0.30;86.25;98437.79;1726058;82;27463;-63
2021/12/20 02:26:40;;;;;;;15.95;7.60;;;;;;;0.29;86.26;98432.92;1725882;82;25603;-64
2021/12/20 02:29:09;;;;;;;18.73;7.92;;;;;;;0.29;86.33;98426.73;1726236;82;25411;-62
2021/12/20 02:39:41;;;;;;;9.35;5.10;;;;;;;0.30;86.71;98439.97;1725833;82;25725;-63
2021/12/20 02:42:11;;;;;;;10.32;4.72;;;;;;;0.34;86.70;98432.17;1726113;83;25669;-63
2021/12/20 02:44:36;;;;;;;10.10;4.75;;;;;;;0.37;86.64;98435.19;1725690;82;25440;-63
2021/12/20 02:47:08;;;;;;;7.70;4.35;;;;;;;0.40;86.43;98433.86;1726395;82;25680;-63
2021/12/20 02:49:33;;;;;;;7.90;5.15;;;;;;;0.43;86.45;98429.31;1724741;82;26269;-64
2021/12/20 02:52:07;;;;;;;11.18;5.10;;;;;;;0.43;86.35;98431.22;1726355;82;25608;-62
2021/12/20 02:54:34;;;;;;;12.13;5.05;;;;;;;0.40;86.48;98436.55;1725855;83;25734;-63
2021/12/20 02:57:01;;;;;;;13.58;5.60;;;;;;;0.41;86.57;98437.38;1725930;82;27833;-63
2021/12/20 02:59:28;;;;;;;16.77;7.70;;;;;;;0.38;86.67;98454.88;1726247;82;25738;-64
2021/12/20 03:02:03;;;;;;;10.88;5.50;;;;;;;0.40;86.63;98453.28;1726023;83;29607;-63
2021/12/20 03:04:29;;;;;;;11.90;5.17;;;;;;;0.42;86.55;98454.66;1726623;82;25420;-63
2021/12/20 03:07:01;;;;;;;10.35;5.37;;;;;;;0.47;86.41;98447.16;1726384;82;25728;-63
2021/12/20 03:09:33;;;;;;;10.63;5.05;;;;;;;0.51;86.28;98448.27;1726178;83;26630;-63
2021/12/20 03:12:01;;;;;;;7.47;4.70;;;;;;;0.52;86.13;98451.80;1726041;82;25441;-63
2021/12/20 03:14:38;;;;;;;7.45;3.67;;;;;;;0.54;86.04;98456.38;1726273;82;27270;-62
2021/12/20 03:17:04;;;;;;;6.47;3.47;;;;;;;0.55;86.02;98455.34;1725587;82;25851;-63
2021/12/20 03:19:31;;;;;;;7.42;3.45;;;;;;;0.51;86.03;98467.15;1726459;82;25673;-62
2021/12/20 03:21:58;;;;;;;5.25;2.72;;;;;;;0.47;85.98;98453.37;1726167;82;25827;-62
2021/12/20 03:24:25;;;;;;;8.53;3.50;;;;;;;0.45;85.92;98461.41;1726074;83;25580;-63
2021/12/20 03:26:52;;;;;;;8.38;3.40;;;;;;;0.43;85.89;98455.48;1726252;82;27595;-63
2021/12/20 03:29:18;;;;;;;7.97;3.25;;;;;;;0.41;85.87;98466.52;1726200;82;25481;-62
2021/12/20 03:31:45;;;;;;;5.92;3.02;;;;;;;0.44;85.80;98470.05;1726543;83;25470;-63
2021/12/20 03:34:13;;;;;;;6.60;3.20;;;;;;;0.44;85.58;98472.75;1726433;83;25779;-62
2021/12/20 03:36:39;;;;;;;5.67;3.60;;;;;;;0.44;85.50;98475.45;1726099;83;25681;-62
2021/12/20 03:39:08;;;;;;;5.35;2.95;;;;;;;0.48;85.55;98467.13;1725955;82;27558;-62
2021/12/20 03:41:35;;;;;;;7.53;2.98;;;;;;;0.49;85.30;98466.05;1725637;83;25598;-62
2021/12/20 03:44:02;;;;;;;5.62;2.87;;;;;;;0.46;85.52;98462.52;1726461;83;25650;-62
2021/12/20 03:46:29;;;;;;;6.53;2.80;;;;;;;0.46;85.58;98471.16;1726737;82;25635;-63
2021/12/20 03:48:56;;;;;;;10.10;4.22;;;;;;;0.44;85.35;98470.05;1726478;82;25577;-63
2021/12/20 03:51:22;;;;;;;9.38;4.90;;;;;;;0.44;85.53;98468.70;1726355;83;27494;-62
2021/12/20 03:53:49;;;;;;;13.25;5.25;;;;;;;0.43;85.44;98468.41;1726066;82;25690;-62
2021/12/20 03:56:15;;;;;;;5.35;3.15;;;;;;;0.43;85.14;98466.27;1726496;82;25488;-62
2021/12/20 03:58:42;;;;;;;8.53;3.90;;;;;;;0.40;84.15;98470.25;1725981;82;27811;-62
2021/12/20 04:01:11;;;;;;;6.85;3.50;;;;;;;0.39;84.21;98462.41;1726121;82;25419;-63
2021/12/20 04:03:39;;;;;;;6.50;3.52;;;;;;;0.39;84.08;98462.41;1726233;82;28117;-63
2021/12/20 04:06:10;;;;;;;10.05;4.28;;;;;;;0.37;83.94;98469.41;1726342;82;25700;-62
2021/12/20 04:08:36;;;;;;;36.93;9.95;;;;;;;0.37;84.11;98474.28;1726130;82;25478;-63
2021/12/20 04:11:04;;;;;;;9.73;4.15;;;;;;;0.36;84.22;98466.44;1726035;82;25809;-63
2021/12/20 04:13:30;;;;;;;10.95;5.00;;;;;;;0.35;84.16;98470.21;1726084;82;25612;-62
2021/12/20 04:15:58;;;;;;;11.10;5.80;;;;;;;0.39;84.45;98473.20;1726285;82;27989;-63
2021/12/20 04:18:26;;;;;;;12.28;5.67;;;;;;;0.43;84.43;98480.54;1726298;82;25657;-63
2021/12/20 04:20:53;;;;;;;10.45;6.03;;;;;;;0.47;84.60;98469.55;1726822;82;25593;-63
2021/12/20 04:23:20;;;;;;;10.20;5.55;;;;;;;0.49;84.23;98482.23;1726107;82;27745;-63
2021/12/20 04:25:46;;;;;;;9.68;4.87;;;;;;;0.48;84.23;98476.56;1725681;82;25665;-63
2021/12/20 04:28:13;;;;;;;9.33;4.58;;;;;;;0.45;84.36;98473.02;1726375;83;27468;-63
2021/12/20 04:30:39;;;;;;;9.93;5.62;;;;;;;0.41;84.06;98467.03;1726135;82;25443;-63
2021/12/20 04:33:06;;;;;;;10.72;4.95;;;;;;;0.39;84.21;98471.33;1725860;83;25451;-63
2021/12/20 04:35:33;;;;;;;8.13;4.90;;;;;;;0.37;84.12;98472.93;1726024;83;25754;-63
2021/12/20 04:38:01;;;;;;;7.50;3.77;;;;;;;0.37;84.08;98470.75;1726202;82;25411;-62
2021/12/20 04:40:27;;;;;;;9.38;4.28;;;;;;;0.37;84.05;98470.23;1726143;83;27140;-63
2021/12/20 04:42:57;;;;;;;6.22;3.00;;;;;;;0.41;84.15;98480.52;1725714;82;27177;-62
2021/12/20 04:45:26;;;;;;;7.15;3.55;;;;;;;0.40;84.18;98478.89;1726278;82;25667;-62
2021/12/20 04:47:54;;;;;;;8.28;3.85;;;;;;;0.37;84.18;98473.45;1726245;83;25839;-62
2021/12/20 04:50:21;;;;;;;10.90;3.70;;;;;;;0.31;83.79;98465.84;1725962;82;25432;-62
2021/12/20 04:52:48;;;;;;;7.37;3.77;;;;;;;0.29;84.08;98475.25;1725953;82;27592;-63
2021/12/20 04:55:15;;;;;;;7.22;3.40;;;;;;;0.31;84.25;98478.49;1726164;83;25584;-63
2021/12/20 04:57:44;;;;;;;6.65;2.75;;;;;;;0.31;83.96;98483.36;1725651;82;25700;-63
2021/12/20 05:00:16;;;;;;;8.15;3.55;;;;;;;0.30;83.62;98488.48;1726768;82;26436;-63
2021/12/20 05:02:42;;;;;;;7.62;3.02;;;;;;;0.32;84.13;98482.29;1726410;82;25687;-63
2021/12/20 05:05:10;;;;;;;6.92;2.85;;;;;;;0.33;84.13;98490.67;1725968;82;27535;-63
2021/12/20 05:07:39;;;;;;;5.30;2.90;;;;;;;0.26;84.09;98481.97;1726382;82;25657;-63
2021/12/20 05:10:12;;;;;;;6.50;3.12;;;;;;;0.24;84.29;98496.22;1726251;82;25741;-64
2021/12/20 05:12:36;;;;;;;4.08;2.45;;;;;;;0.23;84.62;98503.48;1725879;83;25642;-63
2021/12/20 05:15:04;;;;;;;6.03;2.37;;;;;;;0.24;84.72;98497.56;1726168;82;25448;-64
2021/12/20 05:17:31;;;;;;;7.60;3.70;;;;;;;0.24;84.58;98499.73;1726277;83;27425;-63
2021/12/20 05:19:57;;;;;;;5.97;3.10;;;;;;;0.30;84.70;98498.44;1726019;82;25620;-63
2021/12/20 05:22:24;;;;;;;8.70;3.62;;;;;;;0.31;84.63;98500.89;1725991;82;25696;-63
2021/12/20 05:24:50;;;;;;;11.80;5.80;;;;;;;0.31;84.68;98495.50;1726181;82;27885;-63
2021/12/20 05:27:16;;;;;;;12.18;6.28;;;;;;;0.26;84.66;98499.49;1726104;83;25674;-63
2021/12/20 05:29:43;;;;;;;8.70;4.50;;;;;;;0.23;84.89;98502.13;1726069;82;27496;-63
2021/12/20 05:32:09;;;;;;;8.23;3.80;;;;;;;0.26;84.91;98506.23;1725647;83;27171;-63
2021/12/20 05:34:37;;;;;;;10.48;4.37;;;;;;;0.27;84.82;98498.94;1726415;82;25428;-63
2021/12/20 05:37:05;;;;;;;9.60;4.70;;;;;;;0.28;84.78;98500.56;1725719;82;25769;-63
2021/12/20 05:39:31;;;;;;;9.48;4.67;;;;;;;0.30;84.79;98499.78;1726153;82;25490;-63
2021/12/20 05:41:58;;;;;;;9.68;4.15;;;;;;;0.29;84.78;98496.81;1726026;82;27359;-63
2021/12/20 05:44:24;;;;;;;11.10;5.00;;;;;;;0.26;84.81;98510.27;1726106;82;25605;-63
2021/12/20 05:46:52;;;;;;;10.80;4.95;;;;;;;0.23;85.19;98517.50;1726162;82;25601;-63
2021/12/20 05:49:19;;;;;;;8.33;5.25;;;;;;;0.22;85.39;98516.68;1726256;82;25845;-63
2021/12/20 05:51:45;;;;;;;11.22;4.60;;;;;;;0.19;85.58;98516.35;1726426;82;25484;-63
2021/12/20 05:54:12;;;;;;;7.58;4.25;;;;;;;0.22;85.60;98510.47;1725584;82;27399;-63
2021/12/20 05:56:38;;;;;;;12.88;4.85;;;;;;;0.22;85.53;98502.38;1726476;82;25426;-63
2021/12/20 05:59:05;;;;;;;7.62;4.10;;;;;;;0.24;85.47;98507.00;1726004;82;25423;-63
2021/12/20 06:01:31;;;;;;;7.47;3.92;;;;;;;0.25;85.47;98509.97;1725907;83;25785;-63
2021/12/20 06:03:58;;;;;;;7.65;4.28;;;;;;;0.20;85.72;98510.71;1725323;83;25656;-63
2021/12/20 06:06:27;;;;;;;8.95;4.25;;;;;;;0.18;85.71;98519.59;1726197;82;27428;-63
2021/12/20 06:08:53;;;;;;;8.20;4.67;;;;;;;0.18;85.58;98516.91;1725857;82;25482;-63
2021/12/20 06:11:20;;;;;;;6.83;4.03;;;;;;;0.19;85.54;98513.66;1726293;82;25583;-63
2021/12/20 06:13:47;;;;;;;7.83;4.03;;;;;;;0.20;85.60;98520.70;1725788;82;25804;-62
2021/12/20 06:16:14;;;;;;;7.58;3.70;;;;;;;0.20;85.56;98518.80;1725817;82;25640;-62
2021/12/20 06:18:40;;;;;;;10.15;5.45;;;;;;;0.17;85.58;98526.03;1725427;82;27663;-62
2021/12/20 06:21:07;;;;;;;9.10;4.28;;;;;;;0.19;85.73;98523.91;1726108;82;25732;-63
2021/12/20 06:23:34;;;;;;;7.53;3.80;;;;;;;0.18;85.56;98516.91;1726361;82;25563;-63
2021/12/20 06:26:01;;;;;;;5.25;3.35;;;;;;;0.16;85.58;98516.33;1726069;83;25799;-63
2021/12/20 06:28:29;;;;;;;6.85;3.72;;;;;;;0.13;85.75;98534.34;1725747;82;25435;-63
2021/12/20 06:30:56;;;;;;;9.95;4.28;;;;;;;0.10;85.80;98542.39;1725884;83;28332;-63
2021/12/20 06:33:23;;;;;;;10.30;4.45;;;;;;;0.12;85.86;98544.29;1726040;83;25573;-63
2021/12/20 06:35:51;;;;;;;7.97;3.33;;;;;;;0.12;85.80;98551.03;1726241;82;25652;-63
2021/12/20 06:38:21;;;;;;;8.13;4.17;;;;;;;0.15;85.76;98555.65;1725801;83;25784;-63
2021/12/20 06:40:50;;;;;;;9.67;4.60;;;;;;;0.14;85.99;98543.25;1726330;82;25652;-63
2021/12/20 06:43:18;;;;;;;7.70;3.67;;;;;;;0.19;85.91;98558.13;1726347;83;27453;-63
2021/12/20 06:45:46;;;;;;;6.30;3.10;;;;;;;0.17;85.85;98555.67;1725937;82;25600;-63
2021/12/20 06:48:14;;;;;;;6.37;3.42;;;;;;;0.15;85.76;98559.17;1725416;82;25452;-63
2021/12/20 06:50:41;;;;;;;11.40;4.20;;;;;;;0.14;85.83;98564.25;1726158;82;25806;-63
2021/12/20 06:53:09;;;;;;;7.97;3.70;;;;;;;0.14;85.72;98560.21;1726326;82;25572;-63
2021/12/20 06:55:36;;;;;;;6.05;3.52;;;;;;;0.16;85.87;98572.09;1726442;82;27497;-63
2021/12/20 06:58:05;;;;;;;7.05;3.50;;;;;;;0.15;85.62;98576.69;1725821;83;25577;-63
2021/12/20 07:00:32;;;;;;;8.38;4.50;;;;;;;0.16;85.68;98573.44;1726284;83;25669;-63
2021/12/20 07:03:00;;;;;;;8.38;3.95;;;;;;;0.16;85.89;98585.56;1726291;82;25766;-63
2021/12/20 07:05:27;;;;;;;13.30;6.12;;;;;;;0.14;86.00;98570.20;1726359;83;25625;-63
2021/12/20 07:07:54;;;;;;;9.93;5.75;;;;;;;0.16;85.90;98583.70;1726523;82;27555;-63
2021/12/20 07:10:22;;;;;;;13.90;6.50;;;;;;;0.16;86.08;98581.00;1725940;82;25391;-63
2021/12/20 07:12:51;;;;;;;11.97;5.92;;;;;;;0.16;85.85;98581.00;1726154;82;25636;-63
2021/12/20 07:15:19;;;;;;;12.23;5.47;;;;;;;0.17;85.94;98579.14;1725893;82;25834;-63
2021/12/20 07:17:46;;;;;;;13.65;6.20;;;;;;;0.19;85.70;98582.38;1726261;82;25415;-63
2021/12/20 07:20:13;;;;;;;8.83;4.58;;;;;;;0.20;85.82;98585.38;1726313;83;27663;-62
2021/12/20 07:22:41;;;;;;;11.10;5.80;;;;;;;0.21;85.57;98593.74;1726268;82;25747;-63
2021/12/20 07:25:09;;;;;;;7.47;3.95;;;;;;;0.22;85.43;98595.36;1726445;82;25644;-62
2021/12/20 07:27:36;;;;;;;11.48;5.45;;;;;;;0.22;85.37;98596.19;1726839;83;26572;-63
2021/12/20 07:30:06;;;;;;;9.93;5.22;;;;;;;0.21;85.42;98600.48;1731344;82;25750;-63
2021/12/20 07:32:33;;;;;;;12.68;7.03;;;;;;;0.20;85.52;98601.00;1731702;82;27438;-62
2021/12/20 07:35:00;;;;;;;11.95;6.58;;;;;;;0.21;85.60;98592.39;1731467;82;25470;-63
2021/12/20 07:37:27;;;;;;;13.05;6.08;;;;;;;0.22;85.58;98602.93;1726836;82;25595;-63
2021/12/20 07:39:55;;;;;;;17.52;5.95;;;;;;;0.25;85.56;98605.66;1726093;82;25945;-62
2021/12/20 07:42:21;;;;;;;12.95;6.65;;;;;;;0.26;85.58;98601.91;1726502;83;25459;-62
2021/12/20 07:44:49;;;;;;;13.22;7.00;;;;;;;0.28;85.60;98599.77;1726146;82;27483;-62
2021/12/20 07:47:15;;;;;;;16.32;7.22;;;;;;;0.32;85.67;98604.94;1725623;83;25644;-62
2021/12/20 07:49:42;;;;;;;17.12;7.12;;;;;;;0.33;85.71;98599.85;1726139;82;25596;-62
2021/12/20 07:52:09;;;;;;;11.48;5.62;;;;;;;0.32;85.50;98613.03;1725854;82;26070;-62
2021/12/20 07:54:36;;;;;;;15.53;6.78;;;;;;;0.29;85.54;98612.73;1725342;82;25736;-62
2021/12/20 07:57:05;;;;;;;16.12;7.08;;;;;;;0.26;85.57;98612.70;1726472;82;27415;-62
2021/12/20 07:59:31;;;;;;;17.17;8.55;;;;;;;0.30;85.71;98614.34;1725468;83;25479;-62
2021/12/20 08:01:58;;;;;;;12.80;5.62;;;;;;;0.34;85.71;98619.52;1725657;83;25572;-62
2021/12/20 08:04:25;;;;;;;12.28;6.90;;;;;;;0.33;85.25;98619.25;1726094;82;25979;-62
2021/12/20 08:06:52;;;;;;;15.28;7.53;;;;;;;0.32;85.32;98623.81;1726468;82;25672;-61
2021/12/20 08:09:19;;;;;;;12.05;6.65;;;;;;;0.37;85.23;98623.07;1725649;82;27439;-61
2021/12/20 08:11:46;;;;;;;7.92;4.75;;;;;;;0.37;85.10;98616.33;1725815;82;25588;-61
2021/12/20 08:14:13;;;;;;;13.03;6.75;;;;;;;0.37;84.93;98619.03;1726244;83;25578;-62
2021/12/20 08:16:39;;;;;;;16.27;8.68;;;;;;;0.36;84.86;98618.23;1726423;82;26540;-61
2021/12/20 08:19:06;;;;;;;12.33;6.65;;;;;;;0.42;85.03;98629.07;1725911;82;25415;-61
2021/12/20 08:21:33;;;;;;;18.23;7.30;;;;;;;0.38;84.51;98626.08;1728894;82;27275;-61
2021/12/20 08:24:00;;;;;;;11.75;6.15;;;;;;;0.37;84.73;98626.59;1743727;82;25417;-61
2021/12/20 08:26:27;;;;;;;10.20;5.28;;;;;;;0.40;84.75;98632.56;1744751;82;25672;-61
2021/12/20 08:28:54;;;;;;;9.38;5.22;;;;;;;0.39;84.74;98634.95;1744190;82;25940;-61
2021/12/20 08:31:20;;;;;;;14.65;7.50;;;;;;;0.38;84.55;98632.81;1744149;82;25666;-61
2021/12/20 08:33:47;;;;;;;8.93;5.47;;;;;;;0.41;84.75;98635.02;1744508;82;27681;-61
2021/12/20 08:36:14;;;;;;;10.90;5.65;;;;;;;0.40;84.53;98628.52;1744102;82;25639;-61
2021/12/20 08:38:42;;;;;;;9.68;5.40;;;;;;;0.38;84.62;98644.95;1744659;82;25726;-61
2021/12/20 08:41:11;;;;;;;11.08;5.92;;;;;;;0.40;84.59;98634.71;1743837;82;25696;-61
2021/12/20 08:43:40;;;;;;;12.35;7.40;;;;;;;0.43;84.29;98636.12;1744430;81;25403;-61
2021/12/20 08:46:09;;;;;;;14.38;7.47;;;;;;;0.45;84.29;98638.84;1744096;82;27452;-61
2021/12/20 08:48:36;;;;;;;13.18;7.72;;;;;;;0.50;84.18;98638.10;1743991;82;25841;-61
2021/12/20 08:51:05;;;;;;;14.87;7.83;;;;;;;0.52;84.10;98644.08;1744092;82;25490;-61
2021/12/20 08:53:32;;;;;;;12.30;6.35;;;;;;;0.52;84.17;98642.73;1744899;82;25723;-61
2021/12/20 08:56:00;;;;;;;12.88;5.95;;;;;;;0.46;83.99;98641.02;1744621;82;25580;-61
2021/12/20 08:58:27;;;;;;;11.18;6.42;;;;;;;0.46;84.14;98645.06;1744441;82;28111;-61
2021/12/20 09:00:56;;;;;;;13.65;7.40;;;;;;;0.49;84.14;98648.61;1744485;82;25453;-61
2021/12/20 09:03:23;;;;;;;15.28;8.48;;;;;;;0.49;83.93;98653.45;1744404;82;25657;-61
2021/12/20 09:05:50;;;;;;;14.38;7.03;;;;;;;0.53;84.03;98641.66;1744665;82;25857;-61
2021/12/20 09:08:19;;;;;;;16.35;9.18;;;;;;;0.57;84.03;98645.48;1744325;82;25592;-61
2021/12/20 09:10:47;;;;;;;12.50;7.00;;;;;;;0.57;83.99;98648.70;1743385;82;28351;-61
2021/12/20 09:13:15;;;;;;;16.60;9.05;;;;;;;0.56;83.85;98656.52;1744782;82;25592;-61
2021/12/20 09:15:43;;;;;;;17.87;9.00;;;;;;;0.56;83.96;98655.98;1744530;82;25439;-61
2021/12/20 09:18:10;;;;;;;19.77;9.70;;;;;;;0.54;83.87;98654.06;1743197;82;25730;-61
2021/12/20 09:20:38;;;;;;;17.70;8.95;;;;;;;0.51;83.68;98657.25;1744668;82;25671;-61
2021/12/20 09:23:07;;;;;;;16.25;7.75;;;;;;;0.52;83.91;98654.03;1733001;82;27436;-61
2021/12/20 09:25:39;;;;;;;15.72;7.65;;;;;;;0.53;83.94;98659.18;1725836;83;25671;-61
2021/12/20 09:28:09;;;;;;;14.87;6.78;;;;;;;0.55;83.91;98659.73;1726373;82;25614;-61
2021/12/20 09:30:38;;;;;;;14.70;6.30;;;;;;;0.57;83.57;98663.01;1727324;82;25842;-61
2021/12/20 09:33:06;;;;;;;11.57;6.33;;;;;;;0.57;83.39;98660.83;1726617;82;25709;-61
2021/12/20 09:35:34;;;;;;;13.38;6.40;;;;;;;0.58;83.53;98652.49;1726233;83;27460;-61
2021/12/20 09:38:06;;;;;;;7.53;4.97;;;;;;;0.54;83.50;98655.41;1726378;82;25805;-61
2021/12/20 09:40:36;;;;;;;10.55;6.17;;;;;;;0.54;83.38;98654.58;1725912;83;29972;-61
2021/12/20 09:43:06;;;;;;;10.68;6.25;;;;;;;0.49;83.37;98657.50;1725614;82;25415;-61
2021/12/20 09:45:35;;;;;;;14.33;7.22;;;;;;;0.53;83.47;98665.92;1726297;82;25586;-61
2021/12/20 09:48:02;;;;;;;12.47;6.58;;;;;;;0.55;83.54;98670.52;1725799;82;27453;-61
2021/12/20 09:50:29;;;;;;;13.25;5.97;;;;;;;0.55;83.29;98665.67;1725725;83;25385;-61
2021/12/20 09:52:57;;;;;;;10.30;6.10;;;;;;;0.57;83.23;98664.36;1725892;83;25734;-61
2021/12/20 09:55:24;;;;;;;10.88;5.65;;;;;;;0.55;83.31;98661.63;1725883;83;25811;-60
2021/12/20 09:57:51;;;;;;;5.97;4.10;;;;;;;0.54;83.46;98664.84;1725890;82;25728;-61
2021/12/20 10:00:21;;;;;;;11.08;5.53;;;;;;;0.52;83.20;98667.00;1725979;82;27659;-60
2021/12/20 10:02:50;;;;;;;13.90;5.92;;;;;;;0.51;83.21;98661.84;1726635;82;25848;-61
2021/12/20 10:05:19;;;;;;;10.18;5.35;;;;;;;0.54;83.13;98668.06;1726012;82;25696;-60
2021/12/20 10:07:50;;;;;;;14.50;7.50;;;;;;;0.54;83.22;98666.72;1726551;82;25751;-60
2021/12/20 10:10:47;;;;;;;11.25;6.08;;;;;;;0.57;83.52;98665.70;1725911;83;25704;-61
2021/12/20 10:13:27;;;;;;;10.93;6.35;;;;;;;0.55;83.33;98662.42;1726095;83;27437;-61
2021/12/20 10:15:56;;;;;;;14.70;7.65;;;;;;;0.54;82.97;98674.29;1726152;82;25589;-61
2021/12/20 10:18:25;;;;;;;12.50;6.55;;;;;;;0.56;83.41;98669.48;1726074;82;25759;-61
2021/12/20 10:20:56;;;;;;;12.68;7.25;;;;;;;0.53;83.17;98664.58;1726040;83;25789;-61
2021/12/20 10:23:25;;;;;;;;;;;;;;;0.54;83.02;98676.98;1740326;82;25401;-61
2021/12/20 10:25:56;;;;;;;13.85;7.45;;;;;;;0.53;83.11;98671.31;1744372;82;27650;-61
2021/12/20 10:28:27;;;;;;;12.00;6.00;;;;;;;0.55;83.43;98673.21;1744065;82;25639;-61
2021/12/20 10:31:03;;;;;;;;;;;;;;;0.58;83.38;98670.02;1746001;82;25651;-61
2021/12/20 10:33:31;;;;;;;9.00;5.42;;;;;;;0.60;83.14;98668.42;1744218;82;27163;-61
2021/12/20 10:36:13;;;;;;;10.43;5.70;;;;;;;0.60;83.08;98670.61;1744266;82;25616;-61
2021/12/20 10:38:44;;;;;;;9.53;4.72;;;;;;;0.63;83.10;98671.98;1744114;82;27424;-61
2021/12/20 10:41:24;;;;;;;5.78;2.85;;;;;;;0.60;82.78;98671.95;1742437;81;25413;-60
2021/12/20 10:43:54;;;;;;;12.15;6.62;;;;;;;0.58;82.70;98672.72;1743955;82;25391;-60
2021/12/20 10:46:31;;;;;;;15.10;6.92;;;;;;;0.58;82.62;98681.36;1744481;82;25481;-60
2021/12/20 10:49:06;;;;;;;17.15;8.18;;;;;;;0.60;82.73;98671.95;1737294;82;25668;-60
2021/12/20 10:51:38;;;;;;;17.17;8.10;;;;;;;0.65;82.96;98684.70;1742706;82;27491;-60
2021/12/20 10:54:10;;;;;;;16.50;6.53;;;;;;;0.71;83.02;98682.36;1744698;82;25718;-61
2021/12/20 10:56:40;;;;;;;13.55;5.72;;;;;;;0.72;82.46;98680.48;1743893;82;25668;-61
2021/12/20 10:59:12;;;;;;;9.83;4.42;;;;;;;0.72;82.82;98684.53;1744966;82;25754;-60
2021/12/20 11:04:19;;;;;;;20.10;7.97;;;;;;;0.70;82.88;98681.26;1744838;82;25597;-60
2021/12/20 11:07:03;;;;;;;11.05;5.37;;;;;;;0.77;83.18;98685.14;1743961;82;25414;-60
2021/12/20 11:09:29;;;;;;;16.85;6.97;;;;;;;0.75;83.09;98688.09;1742763;82;25670;-60
2021/12/20 11:12:13;;;;;;;12.98;6.40;;;;;;;0.75;83.30;98694.28;1744281;82;26557;-61
2021/12/20 11:14:46;;;;;;;13.68;6.60;;;;;;;0.73;83.47;98696.95;1744299;82;25391;-60
2021/12/20 11:17:17;;;;;;;11.70;5.37;;;;;;;0.73;83.73;98690.20;1744472;82;27417;-60
2021/12/20 11:19:53;;;;;;;;;;;;;;;0.74;83.83;98693.17;1746840;82;25675;-60
2021/12/20 11:22:24;;;;;;;11.60;5.00;;;;;;;0.69;83.86;98690.42;1744189;82;25654;-61
2021/12/20 11:25:00;;;;;;;9.43;4.80;;;;;;;0.65;84.02;98693.31;1742345;82;25642;-61
2021/12/20 11:27:37;;;;;;;10.63;5.33;;;;;;;0.57;84.26;98691.32;1742738;82;25407;-61
2021/12/20 11:30:17;;;;;;;13.00;5.30;;;;;;;0.51;84.67;98693.66;1736171;82;27785;-61
2021/12/20 11:32:47;;;;;;;11.93;4.90;;;;;;;0.50;84.78;98693.38;1742382;82;25486;-61
2021/12/20 11:35:17;;;;;;;11.80;4.92;;;;;;;0.46;84.99;98701.69;1742134;82;25792;-61
2021/12/20 11:37:45;;;;;;;9.48;4.50;;;;;;;0.46;84.99;98702.48;1742963;82;26664;-61
2021/12/20 11:40:15;;;;;;;11.30;5.92;;;;;;;0.47;85.11;98700.61;1742502;82;25579;-61
2021/12/20 11:42:42;;;;;;;8.75;4.42;;;;;;;0.46;85.32;98690.34;1741873;82;32333;-61
2021/12/20 11:45:14;;;;;;;10.95;6.58;;;;;;;0.37;85.65;98697.21;1741444;82;25506;-61
2021/12/20 11:47:54;;;;;;;14.25;8.25;;;;;;;0.33;85.72;98696.91;1741468;82;25739;-61
2021/12/20 11:50:26;;;;;;;12.68;7.17;;;;;;;0.37;85.73;98698.04;1741976;82;25698;-61
2021/12/20 11:52:53;;;;;;;17.17;9.90;;;;;;;0.38;85.49;98697.52;1740307;82;25473;-61
2021/12/20 11:55:28;;;;;;;14.53;7.47;;;;;;;0.38;85.49;98696.17;1741983;82;27598;-61